sensor_id;sensor_type;location;lat;lon;timestamp;pressure;altitude;pressure_sealevel;temperature;humidity
54122;BME280;40029;58.708;50.190;2023-03-03T00:00:52;98392.25;;;-16.86;34.51
54122;BME280;40029;58.708;50.190;2023-03-03T00:03:41;98367.09;;;-17.08;34.74
54122;BME280;40029;58.708;50.190;2023-03-03T00:06:13;98443.06;;;-16.65;34.71
54122;BME280;40029;58.708;50.190;2023-03-03T00:08:44;98438.16;;;-16.63;34.66
54122;BME280;40029;58.708;50.190;2023-03-03T00:11:15;98417.84;;;-16.71;34.59
54122;BME280;40029;58.708;50.190;2023-03-03T00:13:52;98381.00;;;-16.96;34.32
54122;BME280;40029;58.708;50.190;2023-03-03T00:16:37;98439.47;;;-16.70;34.01
54122;BME280;40029;58.708;50.190;2023-03-03T00:19:14;98435.97;;;-16.75;33.92
54122;BME280;40029;58.708;50.190;2023-03-03T00:21:48;98434.41;;;-16.73;33.95
54122;BME280;40029;58.708;50.190;2023-03-03T00:24:22;98400.13;;;-16.95;33.82
54122;BME280;40029;58.708;50.190;2023-03-03T00:26:56;98397.38;;;-17.01;33.57
54122;BME280;40029;58.708;50.190;2023-03-03T00:29:34;98464.22;;;-16.74;33.53
54122;BME280;40029;58.708;50.190;2023-03-03T00:32:17;98418.44;;;-16.94;33.60
54122;BME280;40029;58.708;50.190;2023-03-03T00:34:53;98385.69;;;-17.20;33.62
54122;BME280;40029;58.708;50.190;2023-03-03T00:37:34;98460.19;;;-16.72;34.03
54122;BME280;40029;58.708;50.190;2023-03-03T00:40:21;98453.16;;;-16.61;34.42
54122;BME280;40029;58.708;50.190;2023-03-03T00:42:55;98423.59;;;-16.73;34.52
54122;BME280;40029;58.708;50.190;2023-03-03T00:45:42;98414.22;;;-16.59;34.75
54122;BME280;40029;58.708;50.190;2023-03-03T00:48:26;98445.25;;;-16.17;35.56
54122;BME280;40029;58.708;50.190;2023-03-03T00:50:59;98449.72;;;-15.92;36.03
54122;BME280;40029;58.708;50.190;2023-03-03T00:53:31;98441.69;;;-15.85;34.98
54122;BME280;40029;58.708;50.190;2023-03-03T00:56:21;98419.69;;;-15.94;35.30
54122;BME280;40029;58.708;50.190;2023-03-03T00:58:52;98382.06;;;-16.18;35.22
54122;BME280;40029;58.708;50.190;2023-03-03T01:01:25;98447.94;;;-15.75;35.76
54122;BME280;40029;58.708;50.190;2023-03-03T01:03:58;98383.31;;;-16.08;35.82
54122;BME280;40029;58.708;50.190;2023-03-03T01:06:29;98436.53;;;-15.70;35.57
54122;BME280;40029;58.708;50.190;2023-03-03T01:09:19;98409.72;;;-15.74;35.57
54122;BME280;40029;58.708;50.190;2023-03-03T01:11:50;98427.22;;;-15.53;35.34
54122;BME280;40029;58.708;50.190;2023-03-03T01:14:21;98429.13;;;-15.48;35.58
54122;BME280;40029;58.708;50.190;2023-03-03T01:16:53;98433.47;;;-15.44;35.38
54122;BME280;40029;58.708;50.190;2023-03-03T01:19:24;98421.22;;;-15.38;35.95
54122;BME280;40029;58.708;50.190;2023-03-03T01:21:55;98368.78;;;-15.58;35.62
54122;BME280;40029;58.708;50.190;2023-03-03T01:24:26;98367.69;;;-15.44;35.54
54122;BME280;40029;58.708;50.190;2023-03-03T01:26:57;98369.72;;;-15.35;35.61
54122;BME280;40029;58.708;50.190;2023-03-03T01:29:29;98419.44;;;-15.00;35.57
54122;BME280;40029;58.708;50.190;2023-03-03T01:32:00;98409.72;;;-14.94;35.93
54122;BME280;40029;58.708;50.190;2023-03-03T01:34:31;98346.22;;;-15.20;35.93
54122;BME280;40029;58.708;50.190;2023-03-03T01:37:02;98351.50;;;-15.12;36.06
54122;BME280;40029;58.708;50.190;2023-03-03T01:39:33;98354.47;;;-15.00;36.17
54122;BME280;40029;58.708;50.190;2023-03-03T01:42:04;98394.03;;;-14.69;35.97
54122;BME280;40029;58.708;50.190;2023-03-03T01:44:36;98329.63;;;-14.97;36.24
54122;BME280;40029;58.708;50.190;2023-03-03T01:47:11;98396.28;;;-14.54;36.24
54122;BME280;40029;58.708;50.190;2023-03-03T01:50:10;98355.97;;;-14.62;35.82
54122;BME280;40029;58.708;50.190;2023-03-03T01:52:43;98348.75;;;-14.54;36.14
54122;BME280;40029;58.708;50.190;2023-03-03T01:55:21;98395.84;;;-14.20;35.77
54122;BME280;40029;58.708;50.190;2023-03-03T01:58:04;98375.84;;;-14.20;36.11
54122;BME280;40029;58.708;50.190;2023-03-03T02:00:37;98402.81;;;-14.13;36.35
54122;BME280;40029;58.708;50.190;2023-03-03T02:03:09;98345.16;;;-14.38;36.16
54122;BME280;40029;58.708;50.190;2023-03-03T02:05:41;98393.00;;;-14.06;35.88
54122;BME280;40029;58.708;50.190;2023-03-03T02:08:15;98377.22;;;-14.05;35.91
54122;BME280;40029;58.708;50.190;2023-03-03T02:10:50;98322.34;;;-14.23;36.06
54122;BME280;40029;58.708;50.190;2023-03-03T02:13:21;98328.59;;;-14.12;36.67
54122;BME280;40029;58.708;50.190;2023-03-03T02:15:54;98327.31;;;-14.01;36.41
54122;BME280;40029;58.708;50.190;2023-03-03T02:18:27;98310.84;;;-13.94;36.30
54122;BME280;40029;58.708;50.190;2023-03-03T02:21:09;98387.56;;;-13.48;36.40
54122;BME280;40029;58.708;50.190;2023-03-03T02:26:25;98287.38;;;-13.98;35.85
54122;BME280;40029;58.708;50.190;2023-03-03T02:29:01;98365.94;;;-13.46;36.14
54122;BME280;40029;58.708;50.190;2023-03-03T02:31:34;98372.94;;;-13.36;36.28
54122;BME280;40029;58.708;50.190;2023-03-03T02:34:05;98349.00;;;-13.53;35.98
54122;BME280;40029;58.708;50.190;2023-03-03T02:36:55;98340.72;;;-13.51;36.52
54122;BME280;40029;58.708;50.190;2023-03-03T02:39:26;98329.91;;;-13.50;36.28
54122;BME280;40029;58.708;50.190;2023-03-03T02:42:08;98377.69;;;-13.18;37.12
54122;BME280;40029;58.708;50.190;2023-03-03T02:44:47;98354.19;;;-13.22;37.41
54122;BME280;40029;58.708;50.190;2023-03-03T02:47:18;98370.22;;;-13.17;37.11
54122;BME280;40029;58.708;50.190;2023-03-03T02:50:08;98333.28;;;-13.24;37.55
54122;BME280;40029;58.708;50.190;2023-03-03T02:52:39;98375.22;;;-12.91;37.82
54122;BME280;40029;58.708;50.190;2023-03-03T02:55:11;98314.94;;;-13.23;38.04
54122;BME280;40029;58.708;50.190;2023-03-03T02:57:42;98302.94;;;-13.31;38.60
54122;BME280;40029;58.708;50.190;2023-03-03T03:00:32;98351.50;;;-13.01;38.40
54122;BME280;40029;58.708;50.190;2023-03-03T03:03:04;98362.88;;;-12.85;38.78
54122;BME280;40029;58.708;50.190;2023-03-03T03:05:36;98370.03;;;-12.70;38.49
54122;BME280;40029;58.708;50.190;2023-03-03T03:08:07;98311.47;;;-12.99;38.49
54122;BME280;40029;58.708;50.190;2023-03-03T03:10:39;98358.19;;;-12.74;38.71
54122;BME280;40029;58.708;50.190;2023-03-03T03:13:10;98327.56;;;-12.91;38.64
54122;BME280;40029;58.708;50.190;2023-03-03T03:15:45;98310.09;;;-12.90;38.21
54122;BME280;40029;58.708;50.190;2023-03-03T03:18:17;98352.84;;;-12.58;38.46
54122;BME280;40029;58.708;50.190;2023-03-03T03:21:11;98302.94;;;-12.77;38.31
54122;BME280;40029;58.708;50.190;2023-03-03T03:23:44;98357.25;;;-12.51;38.71
54122;BME280;40029;58.708;50.190;2023-03-03T03:26:16;98363.47;;;-12.38;38.78
54122;BME280;40029;58.708;50.190;2023-03-03T03:28:49;98308.09;;;-12.73;38.94
54122;BME280;40029;58.708;50.190;2023-03-03T03:31:21;98354.06;;;-12.45;39.79
54122;BME280;40029;58.708;50.190;2023-03-03T03:33:52;98356.06;;;-12.35;38.98
54122;BME280;40029;58.708;50.190;2023-03-03T03:36:25;98356.56;;;-12.45;39.26
54122;BME280;40029;58.708;50.190;2023-03-03T03:38:58;98364.66;;;-12.27;39.01
54122;BME280;40029;58.708;50.190;2023-03-03T03:41:33;98365.63;;;-12.22;38.49
54122;BME280;40029;58.708;50.190;2023-03-03T03:44:04;98366.50;;;-12.21;38.38
54122;BME280;40029;58.708;50.190;2023-03-03T03:46:35;98368.72;;;-12.30;38.51
54122;BME280;40029;58.708;50.190;2023-03-03T03:49:07;98320.50;;;-12.77;38.95
54122;BME280;40029;58.708;50.190;2023-03-03T03:51:38;98360.06;;;-12.40;38.50
54122;BME280;40029;58.708;50.190;2023-03-03T03:54:12;98346.25;;;-12.54;38.66
54122;BME280;40029;58.708;50.190;2023-03-03T03:57:02;98387.28;;;-12.25;39.00
54122;BME280;40029;58.708;50.190;2023-03-03T03:59:34;98319.34;;;-12.60;38.46
54122;BME280;40029;58.708;50.190;2023-03-03T04:02:23;98352.91;;;-12.28;38.70
54122;BME280;40029;58.708;50.190;2023-03-03T04:04:55;98367.38;;;-12.19;39.34
54122;BME280;40029;58.708;50.190;2023-03-03T04:07:26;98358.34;;;-12.14;39.06
54122;BME280;40029;58.708;50.190;2023-03-03T04:09:57;98308.97;;;-12.44;38.98
54122;BME280;40029;58.708;50.190;2023-03-03T04:12:28;98320.34;;;-12.26;38.29
54122;BME280;40029;58.708;50.190;2023-03-03T04:14:59;98384.69;;;-12.00;38.61
54122;BME280;40029;58.708;50.190;2023-03-03T04:17:30;98368.63;;;-12.05;38.18
54122;BME280;40029;58.708;50.190;2023-03-03T04:20:02;98382.91;;;-12.02;38.06
54122;BME280;40029;58.708;50.190;2023-03-03T04:22:36;98322.41;;;-12.40;37.70
54122;BME280;40029;58.708;50.190;2023-03-03T04:25:13;98380.47;;;-12.01;38.24
54122;BME280;40029;58.708;50.190;2023-03-03T04:27:46;98328.63;;;-12.29;38.42
54122;BME280;40029;58.708;50.190;2023-03-03T04:30:19;98319.13;;;-12.39;37.93
54122;BME280;40029;58.708;50.190;2023-03-03T04:32:53;98379.16;;;-11.88;37.67
54122;BME280;40029;58.708;50.190;2023-03-03T04:35:26;98376.59;;;-11.90;38.59
54122;BME280;40029;58.708;50.190;2023-03-03T04:37:57;98372.59;;;-11.81;38.14
54122;BME280;40029;58.708;50.190;2023-03-03T04:40:28;98393.28;;;-11.60;38.20
54122;BME280;40029;58.708;50.190;2023-03-03T04:43:00;98384.22;;;-11.55;38.07
54122;BME280;40029;58.708;50.190;2023-03-03T04:45:32;98380.31;;;-11.44;38.03
54122;BME280;40029;58.708;50.190;2023-03-03T04:48:03;98390.50;;;-11.39;37.68
54122;BME280;40029;58.708;50.190;2023-03-03T04:50:35;98327.56;;;-11.75;38.52
54122;BME280;40029;58.708;50.190;2023-03-03T04:53:06;98369.53;;;-11.40;38.53
54122;BME280;40029;58.708;50.190;2023-03-03T04:55:37;98366.59;;;-11.56;37.84
54122;BME280;40029;58.708;50.190;2023-03-03T04:58:10;98377.63;;;-12.12;38.06
54122;BME280;40029;58.708;50.190;2023-03-03T05:01:00;98375.78;;;-12.19;38.45
54122;BME280;40029;58.708;50.190;2023-03-03T05:03:33;98308.50;;;-12.59;39.48
54122;BME280;40029;58.708;50.190;2023-03-03T05:06:23;98346.31;;;-11.94;38.85
54122;BME280;40029;58.708;50.190;2023-03-03T05:08:54;98348.50;;;-11.75;38.48
54122;BME280;40029;58.708;50.190;2023-03-03T05:11:25;98364.31;;;-11.47;38.53
54122;BME280;40029;58.708;50.190;2023-03-03T05:13:57;98355.25;;;-11.42;38.11
54122;BME280;40029;58.708;50.190;2023-03-03T05:16:28;98311.50;;;-11.49;38.05
54122;BME280;40029;58.708;50.190;2023-03-03T05:19:00;98304.59;;;-11.24;38.20
54122;BME280;40029;58.708;50.190;2023-03-03T05:21:31;98317.69;;;-11.01;37.92
54122;BME280;40029;58.708;50.190;2023-03-03T05:24:02;98378.78;;;-10.71;38.25
54122;BME280;40029;58.708;50.190;2023-03-03T05:26:51;98392.22;;;-10.36;37.73
54122;BME280;40029;58.708;50.190;2023-03-03T05:29:23;98379.16;;;-10.16;38.26
54122;BME280;40029;58.708;50.190;2023-03-03T05:31:54;98366.16;;;-9.97;38.15
54122;BME280;40029;58.708;50.190;2023-03-03T05:34:25;98367.97;;;-10.32;38.67
54122;BME280;40029;58.708;50.190;2023-03-03T05:36:56;98376.53;;;-10.22;39.12
54122;BME280;40029;58.708;50.190;2023-03-03T05:39:28;98375.88;;;-10.12;39.08
54122;BME280;40029;58.708;50.190;2023-03-03T05:41:59;98360.13;;;-10.03;38.42
54122;BME280;40029;58.708;50.190;2023-03-03T05:44:30;98367.56;;;-10.10;39.11
54122;BME280;40029;58.708;50.190;2023-03-03T05:47:01;98327.19;;;-10.11;38.70
54122;BME280;40029;58.708;50.190;2023-03-03T05:49:32;98331.41;;;-9.69;38.53
54122;BME280;40029;58.708;50.190;2023-03-03T05:52:03;98376.03;;;-9.18;38.31
54122;BME280;40029;58.708;50.190;2023-03-03T05:54:35;98324.59;;;-9.28;38.34
54122;BME280;40029;58.708;50.190;2023-03-03T05:57:06;98389.19;;;-8.88;37.89
54122;BME280;40029;58.708;50.190;2023-03-03T05:59:37;98362.28;;;-8.87;37.74
54122;BME280;40029;58.708;50.190;2023-03-03T06:02:08;98375.53;;;-8.99;37.66
54122;BME280;40029;58.708;50.190;2023-03-03T06:04:39;98359.69;;;-9.40;38.34
54122;BME280;40029;58.708;50.190;2023-03-03T06:07:11;98239.88;;;-9.67;37.92
54122;BME280;40029;58.708;50.190;2023-03-03T06:10:00;98345.97;;;-9.06;37.97
54122;BME280;40029;58.708;50.190;2023-03-03T06:12:50;98369.19;;;-8.75;37.74
54122;BME280;40029;58.708;50.190;2023-03-03T06:15:22;98370.53;;;-8.43;37.78
54122;BME280;40029;58.708;50.190;2023-03-03T06:17:53;98354.75;;;-8.25;37.21
54122;BME280;40029;58.708;50.190;2023-03-03T06:20:24;98309.16;;;-8.36;37.19
54122;BME280;40029;58.708;50.190;2023-03-03T06:22:56;98346.56;;;-8.07;37.01
54122;BME280;40029;58.708;50.190;2023-03-03T06:25:27;98345.44;;;-8.31;37.02
54122;BME280;40029;58.708;50.190;2023-03-03T06:27:58;98347.06;;;-8.34;37.39
54122;BME280;40029;58.708;50.190;2023-03-03T06:30:29;98358.28;;;-8.15;37.13
54122;BME280;40029;58.708;50.190;2023-03-03T06:33:01;98299.06;;;-8.36;36.89
54122;BME280;40029;58.708;50.190;2023-03-03T06:35:32;98251.88;;;-8.40;37.28
54122;BME280;40029;58.708;50.190;2023-03-03T06:38:03;98345.94;;;-7.91;36.95
54122;BME280;40029;58.708;50.190;2023-03-03T06:40:34;98320.56;;;-8.00;36.96
54122;BME280;40029;58.708;50.190;2023-03-03T06:43:05;98342.13;;;-7.60;37.10
54122;BME280;40029;58.708;50.190;2023-03-03T06:45:54;98300.69;;;-7.71;36.38
54122;BME280;40029;58.708;50.190;2023-03-03T06:48:25;98336.09;;;-7.69;36.15
54122;BME280;40029;58.708;50.190;2023-03-03T06:50:58;98351.53;;;-7.45;36.75
54122;BME280;40029;58.708;50.190;2023-03-03T06:53:31;98301.69;;;-7.53;36.43
54122;BME280;40029;58.708;50.190;2023-03-03T06:56:07;98330.75;;;-7.16;36.12
54122;BME280;40029;58.708;50.190;2023-03-03T06:58:39;98308.56;;;-7.40;36.39
54122;BME280;40029;58.708;50.190;2023-03-03T07:01:15;98345.16;;;-7.06;36.45
54122;BME280;40029;58.708;50.190;2023-03-03T07:03:47;98332.41;;;-7.18;36.47
54122;BME280;40029;58.708;50.190;2023-03-03T07:06:22;98348.56;;;-7.01;36.50
54122;BME280;40029;58.708;50.190;2023-03-03T07:08:54;98331.47;;;-7.26;36.90
54122;BME280;40029;58.708;50.190;2023-03-03T07:11:29;98348.88;;;-6.67;36.77
54122;BME280;40029;58.708;50.190;2023-03-03T07:14:01;98280.13;;;-7.15;36.58
54122;BME280;40029;58.708;50.190;2023-03-03T07:16:32;98338.84;;;-6.53;36.65
54122;BME280;40029;58.708;50.190;2023-03-03T07:19:33;98331.38;;;-6.31;36.54
54122;BME280;40029;58.708;50.190;2023-03-03T07:22:16;98343.34;;;-6.11;36.14
54122;BME280;40029;58.708;50.190;2023-03-03T07:24:50;98334.91;;;-6.04;36.29
54122;BME280;40029;58.708;50.190;2023-03-03T07:27:27;98295.25;;;-5.93;36.10
54122;BME280;40029;58.708;50.190;2023-03-03T07:30:28;98331.69;;;-5.63;35.91
54122;BME280;40029;58.708;50.190;2023-03-03T07:32:59;98283.47;;;-5.68;36.17
54122;BME280;40029;58.708;50.190;2023-03-03T07:35:42;98274.19;;;-5.52;35.86
54122;BME280;40029;58.708;50.190;2023-03-03T07:38:41;98343.66;;;-4.99;35.93
54122;BME280;40029;58.708;50.190;2023-03-03T07:41:33;98286.06;;;-5.19;35.71
54122;BME280;40029;58.708;50.190;2023-03-03T07:44:06;98327.59;;;-4.88;35.91
54122;BME280;40029;58.708;50.190;2023-03-03T07:46:43;98325.03;;;-5.21;35.94
54122;BME280;40029;58.708;50.190;2023-03-03T07:49:22;98330.91;;;-5.29;36.08
54122;BME280;40029;58.708;50.190;2023-03-03T07:51:55;98325.00;;;-5.15;36.48
54122;BME280;40029;58.708;50.190;2023-03-03T07:54:38;98320.81;;;-5.01;35.90
54122;BME280;40029;58.708;50.190;2023-03-03T07:59:46;98317.41;;;-4.85;36.15
54122;BME280;40029;58.708;50.190;2023-03-03T08:05:35;98328.44;;;-4.54;36.23
54122;BME280;40029;58.708;50.190;2023-03-03T08:08:35;98319.03;;;-4.07;35.54
54122;BME280;40029;58.708;50.190;2023-03-03T08:11:12;98313.91;;;-4.01;35.60
54122;BME280;40029;58.708;50.190;2023-03-03T08:13:44;98236.00;;;-4.27;34.97
54122;BME280;40029;58.708;50.190;2023-03-03T08:16:24;98317.16;;;-3.65;35.20
54122;BME280;40029;58.708;50.190;2023-03-03T08:19:01;98313.88;;;-3.89;34.84
54122;BME280;40029;58.708;50.190;2023-03-03T08:21:34;98313.91;;;-4.01;35.34
54122;BME280;40029;58.708;50.190;2023-03-03T08:24:05;98279.19;;;-4.16;36.00
54122;BME280;40029;58.708;50.190;2023-03-03T08:26:37;98272.47;;;-4.32;36.53
54122;BME280;40029;58.708;50.190;2023-03-03T08:29:08;98275.75;;;-4.04;36.01
54122;BME280;40029;58.708;50.190;2023-03-03T08:31:39;98262.91;;;-3.72;35.77
54122;BME280;40029;58.708;50.190;2023-03-03T08:34:10;98308.53;;;-3.35;35.41
54122;BME280;40029;58.708;50.190;2023-03-03T08:36:41;98245.84;;;-3.56;35.81
54122;BME280;40029;58.708;50.190;2023-03-03T08:39:12;98315.06;;;-2.99;35.10
54122;BME280;40029;58.708;50.190;2023-03-03T08:41:43;98276.88;;;-3.02;34.89
54122;BME280;40029;58.708;50.190;2023-03-03T08:44:15;98256.63;;;-3.17;35.13
54122;BME280;40029;58.708;50.190;2023-03-03T08:46:46;98269.88;;;-2.79;35.24
54122;BME280;40029;58.708;50.190;2023-03-03T08:49:18;98259.16;;;-3.14;35.51
54122;BME280;40029;58.708;50.190;2023-03-03T08:51:49;98262.25;;;-2.79;35.20
54122;BME280;40029;58.708;50.190;2023-03-03T08:54:22;98276.63;;;-2.73;34.98
54122;BME280;40029;58.708;50.190;2023-03-03T08:56:53;98255.16;;;-2.46;35.18
54122;BME280;40029;58.708;50.190;2023-03-03T08:59:24;98301.34;;;-1.93;34.27
54122;BME280;40029;58.708;50.190;2023-03-03T09:01:55;98260.53;;;-1.95;34.23
54122;BME280;40029;58.708;50.190;2023-03-03T09:04:27;98295.03;;;-1.65;34.47
54122;BME280;40029;58.708;50.190;2023-03-03T09:06:58;98242.41;;;-1.77;34.06
54122;BME280;40029;58.708;50.190;2023-03-03T09:09:29;98296.09;;;-1.18;33.75
54122;BME280;40029;58.708;50.190;2023-03-03T09:12:16;98258.25;;;-1.52;33.23
54122;BME280;40029;58.708;50.190;2023-03-03T09:14:49;98288.59;;;-1.30;33.65
54122;BME280;40029;58.708;50.190;2023-03-03T09:17:30;98248.50;;;-1.25;33.29
54122;BME280;40029;58.708;50.190;2023-03-03T09:20:23;98288.66;;;-0.76;32.96
54122;BME280;40029;58.708;50.190;2023-03-03T09:22:55;98230.94;;;-0.92;33.60
54122;BME280;40029;58.708;50.190;2023-03-03T09:25:35;98244.19;;;-0.69;32.77
54122;BME280;40029;58.708;50.190;2023-03-03T09:28:25;98277.69;;;-0.35;32.91
54122;BME280;40029;58.708;50.190;2023-03-03T09:31:02;98199.28;;;-0.84;32.16
54122;BME280;40029;58.708;50.190;2023-03-03T09:33:53;98272.09;;;-0.55;32.91
54122;BME280;40029;58.708;50.190;2023-03-03T09:36:37;98218.53;;;-0.64;33.17
54122;BME280;40029;58.708;50.190;2023-03-03T09:39:17;98262.28;;;-0.32;33.62
54122;BME280;40029;58.708;50.190;2023-03-03T09:44:54;98263.31;;;0.03;33.40
54122;BME280;40029;58.708;50.190;2023-03-03T09:50:29;98258.31;;;-0.03;33.29
54122;BME280;40029;58.708;50.190;2023-03-03T09:56:12;98222.16;;;0.12;32.67
54122;BME280;40029;58.708;50.190;2023-03-03T09:59:36;98260.88;;;0.39;31.71
54122;BME280;40029;58.708;50.190;2023-03-03T10:02:34;98253.00;;;0.48;31.90
54122;BME280;40029;58.708;50.190;2023-03-03T10:08:38;98202.88;;;0.36;31.56
54122;BME280;40029;58.708;50.190;2023-03-03T10:11:18;98212.06;;;0.45;33.01
54122;BME280;40029;58.708;50.190;2023-03-03T10:19:39;98233.56;;;0.77;32.68
54122;BME280;40029;58.708;50.190;2023-03-03T10:22:18;98239.88;;;0.97;32.46
54122;BME280;40029;58.708;50.190;2023-03-03T10:28:05;98226.88;;;1.07;32.71
54122;BME280;40029;58.708;50.190;2023-03-03T10:33:52;98228.44;;;1.12;31.89
54122;BME280;40029;58.708;50.190;2023-03-03T10:36:40;98184.66;;;0.84;32.44
54122;BME280;40029;58.708;50.190;2023-03-03T10:50:49;98173.19;;;1.32;31.17
54122;BME280;40029;58.708;50.190;2023-03-03T10:53:34;98203.66;;;1.45;31.61
54122;BME280;40029;58.708;50.190;2023-03-03T10:56:31;98222.19;;;1.55;30.89
54122;BME280;40029;58.708;50.190;2023-03-03T11:05:11;98210.84;;;1.64;32.31
54122;BME280;40029;58.708;50.190;2023-03-03T11:13:59;98208.66;;;1.50;32.10
54122;BME280;40029;58.708;50.190;2023-03-03T11:16:50;98199.72;;;1.32;32.27
54122;BME280;40029;58.708;50.190;2023-03-03T11:19:34;98199.94;;;1.23;33.00
54122;BME280;40029;58.708;50.190;2023-03-03T11:22:39;98158.94;;;0.87;32.58
54122;BME280;40029;58.708;50.190;2023-03-03T11:38:59;98204.00;;;0.97;32.99
54122;BME280;40029;58.708;50.190;2023-03-03T11:46:54;98175.63;;;-0.07;34.43
54122;BME280;40029;58.708;50.190;2023-03-03T11:52:35;98174.53;;;-0.37;34.88
54122;BME280;40029;58.708;50.190;2023-03-03T11:55:18;98214.81;;;-0.03;34.98
54122;BME280;40029;58.708;50.190;2023-03-03T11:58:06;98167.63;;;-0.33;35.60
54122;BME280;40029;58.708;50.190;2023-03-03T12:00:53;98212.78;;;0.11;35.11
54122;BME280;40029;58.708;50.190;2023-03-03T12:06:28;98213.06;;;0.39;34.99
54122;BME280;40029;58.708;50.190;2023-03-03T12:09:25;98208.66;;;0.44;34.75
54122;BME280;40029;58.708;50.190;2023-03-03T12:12:04;98210.75;;;0.27;35.32
54122;BME280;40029;58.708;50.190;2023-03-03T12:32:21;98226.81;;;-0.52;37.34
54122;BME280;40029;58.708;50.190;2023-03-03T12:35:08;98223.53;;;-0.60;36.93
54122;BME280;40029;58.708;50.190;2023-03-03T12:37:51;98230.50;;;-0.66;37.76
54122;BME280;40029;58.708;50.190;2023-03-03T12:40:31;98213.50;;;-0.69;37.35
54122;BME280;40029;58.708;50.190;2023-03-03T12:43:22;98229.03;;;-0.80;38.37
54122;BME280;40029;58.708;50.190;2023-03-03T12:48:39;98184.28;;;-1.04;38.42
54122;BME280;40029;58.708;50.190;2023-03-03T12:56:39;98234.19;;;-0.83;38.46
54122;BME280;40029;58.708;50.190;2023-03-03T13:00:29;98225.00;;;-0.93;39.21
54122;BME280;40029;58.708;50.190;2023-03-03T13:10:57;98211.50;;;-1.03;38.63
54122;BME280;40029;58.708;50.190;2023-03-03T13:16:36;98206.09;;;-1.37;39.45
54122;BME280;40029;58.708;50.190;2023-03-03T13:21:51;98199.94;;;-1.25;38.62
54122;BME280;40029;58.708;50.190;2023-03-03T13:24:37;98216.69;;;-1.06;38.92
54122;BME280;40029;58.708;50.190;2023-03-03T13:27:18;98188.09;;;-1.29;39.04
54122;BME280;40029;58.708;50.190;2023-03-03T13:30:00;98226.75;;;-0.98;39.12
54122;BME280;40029;58.708;50.190;2023-03-03T13:32:43;98228.47;;;-0.98;39.07
54122;BME280;40029;58.708;50.190;2023-03-03T13:38:00;98238.63;;;-0.94;38.98
54122;BME280;40029;58.708;50.190;2023-03-03T13:40:42;98215.78;;;-1.03;39.06
54122;BME280;40029;58.708;50.190;2023-03-03T13:43:18;98185.50;;;-1.26;39.23
54122;BME280;40029;58.708;50.190;2023-03-03T13:46:20;98228.53;;;-1.00;39.36
54122;BME280;40029;58.708;50.190;2023-03-03T13:52:02;98227.78;;;-1.08;39.58
54122;BME280;40029;58.708;50.190;2023-03-03T13:54:57;98222.84;;;-1.17;39.21
54122;BME280;40029;58.708;50.190;2023-03-03T13:57:58;98190.38;;;-1.68;40.25
54122;BME280;40029;58.708;50.190;2023-03-03T14:00:35;98224.81;;;-1.36;40.28
54122;BME280;40029;58.708;50.190;2023-03-03T14:06:26;98202.25;;;-1.64;40.61
54122;BME280;40029;58.708;50.190;2023-03-03T14:17:24;98222.53;;;-1.55;40.14
54122;BME280;40029;58.708;50.190;2023-03-03T14:20:23;98214.41;;;-1.81;40.59
54122;BME280;40029;58.708;50.190;2023-03-03T14:23:02;98233.00;;;-1.73;40.79
54122;BME280;40029;58.708;50.190;2023-03-03T14:25:57;98233.72;;;-1.63;41.26
54122;BME280;40029;58.708;50.190;2023-03-03T14:28:44;98226.22;;;-1.74;41.34
54122;BME280;40029;58.708;50.190;2023-03-03T14:34:23;98229.88;;;-1.93;41.55
54122;BME280;40029;58.708;50.190;2023-03-03T14:37:07;98223.03;;;-1.90;42.07
54122;BME280;40029;58.708;50.190;2023-03-03T14:40:20;98222.09;;;-1.84;41.91
54122;BME280;40029;58.708;50.190;2023-03-03T14:45:40;98200.28;;;-2.08;41.77
54122;BME280;40029;58.708;50.190;2023-03-03T14:48:20;98217.84;;;-1.85;41.98
54122;BME280;40029;58.708;50.190;2023-03-03T14:51:14;98172.25;;;-2.11;41.91
54122;BME280;40029;58.708;50.190;2023-03-03T14:53:50;98222.91;;;-1.81;42.13
54122;BME280;40029;58.708;50.190;2023-03-03T15:04:27;98217.09;;;-1.93;42.07
54122;BME280;40029;58.708;50.190;2023-03-03T15:10:35;98167.91;;;-2.03;41.85
54122;BME280;40029;58.708;50.190;2023-03-03T15:18:31;98199.22;;;-1.90;41.57
54122;BME280;40029;58.708;50.190;2023-03-03T15:21:14;98199.34;;;-1.99;42.03
54122;BME280;40029;58.708;50.190;2023-03-03T15:24:10;98221.34;;;-1.91;42.26
54122;BME280;40029;58.708;50.190;2023-03-03T15:26:51;98158.75;;;-2.19;42.37
54122;BME280;40029;58.708;50.190;2023-03-03T15:32:10;98167.16;;;-2.11;41.90
54122;BME280;40029;58.708;50.190;2023-03-03T15:34:46;98206.75;;;-1.83;42.17
54122;BME280;40029;58.708;50.190;2023-03-03T15:37:48;98208.44;;;-1.83;41.84
54122;BME280;40029;58.708;50.190;2023-03-03T15:40:43;98193.47;;;-2.06;42.60
54122;BME280;40029;58.708;50.190;2023-03-03T15:46:49;98216.84;;;-1.75;42.52
54122;BME280;40029;58.708;50.190;2023-03-03T15:49:46;98211.78;;;-1.77;42.60
54122;BME280;40029;58.708;50.190;2023-03-03T15:52:37;98214.41;;;-1.83;41.98
54122;BME280;40029;58.708;50.190;2023-03-03T15:55:28;98211.91;;;-1.87;42.41
54122;BME280;40029;58.708;50.190;2023-03-03T16:03:23;98188.28;;;-2.02;43.04
54122;BME280;40029;58.708;50.190;2023-03-03T16:06:05;98206.19;;;-2.03;43.73
54122;BME280;40029;58.708;50.190;2023-03-03T16:11:47;98196.19;;;-2.20;44.35
54122;BME280;40029;58.708;50.190;2023-03-03T16:20:02;98201.28;;;-2.20;43.96
54122;BME280;40029;58.708;50.190;2023-03-03T16:22:57;98201.34;;;-2.26;44.08
54122;BME280;40029;58.708;50.190;2023-03-03T16:26:06;98203.13;;;-2.34;44.51
54122;BME280;40029;58.708;50.190;2023-03-03T16:34:53;98180.00;;;-2.19;44.25
54122;BME280;40029;58.708;50.190;2023-03-03T16:37:31;98166.81;;;-2.53;44.58
54122;BME280;40029;58.708;50.190;2023-03-03T16:40:16;98153.16;;;-2.49;44.35
54122;BME280;40029;58.708;50.190;2023-03-03T16:45:45;98172.53;;;-2.34;44.55
54122;BME280;40029;58.708;50.190;2023-03-03T16:48:47;98193.69;;;-2.24;45.12
54122;BME280;40029;58.708;50.190;2023-03-03T16:54:32;98179.19;;;-2.22;44.74